Brownsville, TX

5:21 AM CDT on September 30, 2016 (GMT -0500)
West Brownsville | | Change Station

Elev 35 ft 25.92 °N, 97.52 °W | Updated 5 minutes ago

Clear
Clear
71.7 °F
Feels Like 71.7 °F
N
2.0
Wind Variable Wind from NW
Gusts 3.0 mph

Today
High -- | Low -- °F
--% Chance of Precip.
Yesterday
High -- | Low -- °F
Precip. -- in
Pressure 30.06 in
Visibility 10.0 miles
Clouds Clear
Dew Point 69 °F
Humidity 92%
Rainfall 0.00 in
Snow Depth Not available.
7:22 AM 7:17 PM
Waning Crescent, 0% visible
METAR KBRO 300953Z AUTO 36003KT 10SM CLR 23/21 A3006 RMK AO2 SLP178 T02330211
Pressure 30.06 in
Visibility 10.0 miles
Clouds Clear
Dew Point 69 °F
Humidity 92%
Rainfall 0.00 in
Snow Depth Not available.
7:22 AM 7:17 PM
Waning Crescent, 0% visible
METAR KBRO 300953Z AUTO 36003KT 10SM CLR 23/21 A3006 RMK AO2 SLP178 T02330211

10-Day Weather Forecast

Almanac

Astronomy

Sep. 30, 2016 Rise Set
Actual Time
Civil Twilight
Nautical Twilight
Astronomical Twilight
Moon
Length of Visible Light
Length of Day
Tomorrow will be .
, % of the Moon is Illuminated

Today's Extremes

State Highs State Lows

Community

WunderPhotos

Upload Photos

1,942,687 photos uploaded!

WunderBlog® & News

Nearby

Air Quality

  Air Quality AQ Index Pollutant
Not available.

Snow Depth

Station Depth Elevation

Earthquake Activity

City Distance Mag. Time & Date
Minimum magnitude displayed is 2.5.

Coastal Water Temperatures

Place Temperature

Stations

Nearby Weather Stations

Station Location Temp. Windchill Dew Point Humidity Wind Precip. Elev Updated Type
                   

Watches & Warnings

There are currently no watches in effect.